Time;durP1;ratioP1;P1;durP2;ratioP2;P2;SDS_P1;SDS_P2;PMS_P1;PMS_P2;Temp;Humidity;BMP_temperature;BMP_pressure;BME280_temperature;BME280_humidity;BME280_pressure;Samples;Min_cycle;Max_cycle;Signal;HPM_P1;HPM_P2
2021/05/18 00:01:59;;;;;;;;;;;;;;;13.31;61.40;99815.07;1734491;81;20567;-73
2021/05/18 00:04:25;;;;;;;;;;;;;;;13.32;61.46;99815.91;1723978;81;20163;-73
2021/05/18 00:06:51;;;;;;;;;;;;;;;13.36;61.57;99822.67;1735914;82;20205;-74
2021/05/18 00:12:02;;;;;;;;;;;;;;;13.39;61.71;99821.26;1733184;82;20558;-73
2021/05/18 00:14:32;;;;;;;;;;;;;;;13.37;61.59;99829.56;1724522;82;20173;-73
2021/05/18 00:16:58;;;;;;;;;;;;;;;13.32;61.72;99821.95;1728485;81;20178;-73
2021/05/18 00:19:24;;;;;;;;;;;;;;;13.31;61.71;99827.20;1716987;82;20288;-73
2021/05/18 00:21:50;;;;;;;;;;;;;;;13.28;61.83;99831.22;1734020;82;20163;-73
2021/05/18 00:24:16;;;;;;;;;;;;;;;13.23;61.82;99829.65;1737447;81;20191;-74
2021/05/18 00:26:42;;;;;;;;;;;;;;;13.24;61.97;99829.20;1732321;81;20191;-74
2021/05/18 00:29:09;;;;;;;;;;;;;;;13.21;62.02;99827.57;1739325;82;20147;-74
2021/05/18 00:31:35;;;;;;;;;;;;;;;13.22;62.05;99829.26;1736061;81;20156;-73
2021/05/18 00:34:02;;;;;;;;;;;;;;;13.24;62.14;99827.45;1733115;82;20163;-73
2021/05/18 00:36:28;;;;;;;;;;;;;;;13.24;62.14;99822.26;1740987;81;20191;-73
2021/05/18 00:38:54;;;;;;;;;;;;;;;13.28;62.19;99829.92;1735354;81;20154;-73
2021/05/18 00:41:20;;;;;;;;;;;;;;;13.28;62.26;99827.33;1721671;82;20185;-73
2021/05/18 00:43:46;;;;;;;;;;;;;;;13.29;62.33;99818.63;1734422;82;20160;-73
2021/05/18 00:46:20;;;;;;;;;;;;;;;13.26;62.28;99823.49;1724658;82;20189;-73
2021/05/18 00:48:56;;;;;;;;;;;;;;;13.27;62.43;99822.59;1731281;82;20176;-73
2021/05/18 00:51:15;;;;;;;;;;;;;;;13.30;62.42;99825.52;1731117;82;20214;-73
2021/05/18 00:53:41;;;;;;;;;;;;;;;13.28;62.48;99823.44;1721781;81;20161;-73
2021/05/18 00:58:53;;;;;;;;;;;;;;;13.29;62.62;99820.78;1732615;81;20160;-74
2021/05/18 01:01:22;;;;;;;;;;;;;;;13.25;62.60;99819.20;1730766;82;20144;-73
2021/05/18 01:03:50;;;;;;;;;;;;;;;13.24;62.72;99822.70;1739969;82;20152;-73
2021/05/18 01:06:19;;;;;;;;;;;;;;;13.24;62.68;99820.11;1736939;82;20152;-73
2021/05/18 01:08:46;;;;;;;;;;;;;;;13.23;62.80;99820.56;1735027;81;20153;-73
2021/05/18 01:11:13;;;;;;;;;;;;;;;13.24;62.83;99822.26;1724236;81;20173;-73
2021/05/18 01:13:47;;;;;;;;;;;;;;;13.20;62.82;99823.28;1741697;81;20175;-73
2021/05/18 01:16:14;;;;;;;;;;;;;;;13.17;62.90;99816.91;1734355;82;20168;-73
2021/05/18 01:18:44;;;;;;;;;;;;;;;13.18;62.98;99817.76;1725610;81;20170;-73
2021/05/18 01:21:15;;;;;;;;;;;;;;;13.18;63.00;99822.95;1742062;81;20156;-73
2021/05/18 01:23:42;;;;;;;;;;;;;;;13.19;63.01;99822.89;1741604;81;20195;-73
2021/05/18 01:26:09;;;;;;;;;;;;;;;13.20;63.00;99828.47;1737455;81;20147;-73
2021/05/18 01:28:39;;;;;;;;;;;;;;;13.21;63.05;99825.42;1720554;82;20143;-73
2021/05/18 01:31:06;;;;;;;;;;;;;;;13.21;63.04;99828.87;1730536;82;20165;-73
2021/05/18 01:33:33;;;;;;;;;;;;;;;13.19;63.10;99837.16;1729784;82;20173;-73
2021/05/18 01:36:08;;;;;;;;;;;;;;;13.19;63.20;99838.46;1739810;82;20183;-74
2021/05/18 01:38:57;;;;;;;;;;;;;;;13.15;63.22;99839.91;1725277;82;20505;-74
2021/05/18 01:43:59;;;;;;;;;;;;;;;13.04;63.35;99842.07;1720691;81;20170;-73
2021/05/18 01:46:26;;;;;;;;;;;;;;;13.03;63.38;99841.67;1723515;82;20163;-74
2021/05/18 01:48:58;;;;;;;;;;;;;;;13.05;63.43;99844.61;1739909;81;20522;-73
2021/05/18 01:51:42;;;;;;;;;;;;;;;13.04;63.42;99839.48;1714347;81;20523;-73
2021/05/18 01:54:12;;;;;;;;;;;;;;;12.99;63.50;99840.98;1721405;82;20138;-73
2021/05/18 01:56:54;;;;;;;;;;;;;;;12.93;63.50;99842.05;1726847;82;20162;-73
2021/05/18 01:59:21;;;;;;;;;;;;;;;12.93;63.52;99840.77;1732080;81;20182;-73
2021/05/18 02:01:52;;;;;;;;;;;;;;;12.90;63.60;99845.22;1727400;81;20190;-73
2021/05/18 02:04:24;;;;;;;;;;;;;;;12.91;63.69;99843.86;1725987;82;20184;-73
2021/05/18 02:06:51;;;;;;;;;;;;;;;12.92;63.65;99847.30;1737150;82;20495;-73
2021/05/18 02:09:17;;;;;;;;;;;;;;;12.90;63.71;99849.95;1728313;82;20155;-73
2021/05/18 02:11:43;;;;;;;;;;;;;;;12.89;63.74;99846.13;1736793;82;20207;-73
2021/05/18 02:14:17;;;;;;;;;;;;;;;12.88;63.80;99853.06;1734001;82;20171;-73
2021/05/18 02:16:40;;;;;;;;;;;;;;;12.88;63.86;99861.30;1735341;82;20491;-73
2021/05/18 02:19:14;;;;;;;;;;;;;;;12.88;63.88;99857.41;1726989;82;20159;-73
2021/05/18 02:26:55;;;;;;;;;;;;;;;12.87;63.99;99860.45;1721441;81;20194;-73
2021/05/18 02:29:21;;;;;;;;;;;;;;;12.86;64.03;99860.05;1737924;82;20179;-73
2021/05/18 02:31:49;;;;;;;;;;;;;;;12.86;64.03;99866.99;1728178;82;20197;-74
2021/05/18 02:34:16;;;;;;;;;;;;;;;12.86;64.05;99866.99;1738924;81;20172;-73
2021/05/18 02:36:42;;;;;;;;;;;;;;;12.86;64.02;99868.30;1728045;82;20510;-73
2021/05/18 02:39:08;;;;;;;;;;;;;;;12.86;64.10;99867.84;1727704;82;20175;-73
2021/05/18 02:41:34;;;;;;;;;;;;;;;12.85;64.13;99871.34;1738579;82;20148;-73
2021/05/18 02:44:08;;;;;;;;;;;;;;;12.83;64.24;99871.00;1732614;81;20158;-73
2021/05/18 02:49:13;;;;;;;;;;;;;;;12.77;64.40;99873.81;1723322;82;20150;-73
2021/05/18 02:51:44;;;;;;;;;;;;;;;12.71;64.42;99871.00;1731051;82;20166;-73
2021/05/18 02:54:12;;;;;;;;;;;;;;;12.72;64.58;99875.73;1714040;82;20161;-74
2021/05/18 02:56:46;;;;;;;;;;;;;;;12.70;64.48;99867.16;1731617;82;20172;-74
2021/05/18 02:59:14;;;;;;;;;;;;;;;12.67;64.61;99872.46;1722433;82;20498;-73
2021/05/18 03:01:41;;;;;;;;;;;;;;;12.71;64.70;99878.78;1739741;81;20179;-74
2021/05/18 03:04:07;;;;;;;;;;;;;;;12.74;64.74;99878.66;1741145;81;20184;-74
2021/05/18 03:06:34;;;;;;;;;;;;;;;12.74;64.75;99881.71;1740066;82;20162;-74
2021/05/18 03:09:08;;;;;;;;;;;;;;;12.74;64.79;99881.71;1738896;82;20144;-73
2021/05/18 03:11:31;;;;;;;;;;;;;;;12.73;64.83;99878.27;1732452;82;20417;-73
2021/05/18 03:13:57;;;;;;;;;;;;;;;12.74;64.82;99874.77;1742474;82;20183;-73
2021/05/18 03:16:23;;;;;;;;;;;;;;;12.73;64.89;99882.61;1741235;81;20201;-73
2021/05/18 03:18:50;;;;;;;;;;;;;;;12.69;64.92;99888.36;1729813;82;20189;-73
2021/05/18 03:21:24;;;;;;;;;;;;;;;12.68;65.00;99893.61;1739513;82;20184;-73
2021/05/18 03:23:50;;;;;;;;;;;;;;;12.64;65.09;99892.87;1716558;82;20161;-74
2021/05/18 03:26:16;;;;;;;;;;;;;;;12.64;65.17;99895.46;1732977;82;20209;-74
2021/05/18 03:28:42;;;;;;;;;;;;;;;12.62;65.20;99889.94;1725079;82;20153;-74
2021/05/18 03:36:32;;;;;;;;;;;;;;;12.70;65.34;99899.59;1730077;81;20167;-73
2021/05/18 03:38:59;;;;;;;;;;;;;;;12.74;65.17;99908.95;1735600;82;20185;-73
2021/05/18 03:41:29;;;;;;;;;;;;;;;12.73;65.15;99908.55;1736113;82;20213;-74
2021/05/18 03:44:02;;;;;;;;;;;;;;;12.73;65.25;99914.59;1734272;82;20156;-74
2021/05/18 04:02:58;;;;;;;;;;;;;;;12.73;65.46;99920.23;1729433;82;20569;-73
2021/05/18 04:59:20;;;;;;;;;;;;;;;12.91;66.27;99961.93;1721411;82;20268;-75
2021/05/18 05:07:09;;;;;;;;;;;;;;;12.92;66.35;99959.73;1732096;82;20263;-75
2021/05/18 05:09:34;;;;;;;;;;;;;;;12.93;66.41;99957.98;1730998;82;20168;-75
2021/05/18 05:14:44;;;;;;;;;;;;;;;12.97;66.53;99958.27;1742829;81;20515;-76
2021/05/18 05:17:10;;;;;;;;;;;;;;;13.02;66.50;99966.70;1735573;81;20215;-76
2021/05/18 05:19:36;;;;;;;;;;;;;;;13.07;66.48;99957.00;1740273;81;20171;-75
2021/05/18 05:22:05;;;;;;;;;;;;;;;13.13;66.50;99963.72;1737521;81;20286;-76
2021/05/18 05:24:32;;;;;;;;;;;;;;;13.19;66.50;99960.93;1736192;81;20589;-75
2021/05/18 05:26:59;;;;;;;;;;;;;;;13.18;66.50;99963.98;1735880;81;20175;-75
2021/05/18 05:29:25;;;;;;;;;;;;;;;13.21;66.57;99966.91;1738828;82;20208;-75
2021/05/18 05:31:54;;;;;;;;;;;;;;;13.25;66.59;99965.45;1731998;82;20310;-75
2021/05/18 05:34:21;;;;;;;;;;;;;;;13.30;66.65;99963.97;1740964;82;20538;-75
2021/05/18 05:36:48;;;;;;;;;;;;;;;13.36;66.67;99970.23;1736531;81;20151;-75
2021/05/18 05:41:43;;;;;;;;;;;;;;;13.51;66.58;99981.34;1728462;82;20290;-76
2021/05/18 05:44:09;;;;;;;;;;;;;;;13.62;66.62;99984.80;1735000;81;20318;-75
2021/05/18 05:46:36;;;;;;;;;;;;;;;13.71;66.65;99984.91;1723981;82;20757;-76
2021/05/18 05:49:03;;;;;;;;;;;;;;;13.77;66.60;99988.11;1712669;82;20406;-75
2021/05/18 05:51:29;;;;;;;;;;;;;;;13.84;66.58;99990.86;1735369;81;20569;-76
2021/05/18 05:53:59;;;;;;;;;;;;;;;13.81;66.44;99990.14;1733310;81;20266;-75
2021/05/18 05:56:28;;;;;;;;;;;;;;;13.79;66.51;99986.30;1740881;82;20168;-75
2021/05/18 05:58:55;;;;;;;;;;;;;;;13.76;66.48;99989.47;1737922;82;20164;-75
2021/05/18 06:01:21;;;;;;;;;;;;;;;13.76;66.52;99992.06;1738933;81;20501;-76
2021/05/18 06:03:50;;;;;;;;;;;;;;;13.76;66.53;99999.86;1734894;81;20271;-76
2021/05/18 06:06:16;;;;;;;;;;;;;;;13.74;66.54;99996.48;1729738;81;20259;-75
2021/05/18 06:08:44;;;;;;;;;;;;;;;13.70;66.56;100005.30;1735250;82;20183;-76
2021/05/18 06:46:59;;;;;;;;;;;;;;;12.91;67.56;100038.94;1702627;83;20405;-75
2021/05/18 06:49:24;;;;;;;;;;;;;;;12.87;67.56;100042.53;1735261;81;20283;-74
2021/05/18 06:51:50;;;;;;;;;;;;;;;12.84;67.78;100040.89;1731775;81;20223;-75
2021/05/18 06:54:16;;;;;;;;;;;;;;;12.85;67.79;100040.44;1738684;81;20139;-75
2021/05/18 06:56:45;;;;;;;;;;;;;;;12.84;67.79;100043.48;1716797;82;20152;-74
2021/05/18 07:01:38;;;;;;;;;;;;;;;12.86;67.90;100045.58;1740757;81;20143;-75
2021/05/18 07:04:08;;;;;;;;;;;;;;;12.87;67.90;100045.13;1742234;82;20151;-76
2021/05/18 07:06:42;;;;;;;;;;;;;;;12.87;67.93;100047.27;1736060;81;20168;-75
2021/05/18 07:09:03;;;;;;;;;;;;;;;12.88;67.97;100047.67;1718487;82;20163;-75
2021/05/18 07:11:30;;;;;;;;;;;;;;;12.89;68.03;100044.63;1740800;81;20242;-75
2021/05/18 07:13:56;;;;;;;;;;;;;;;12.90;68.00;100040.67;1743878;81;20221;-74
2021/05/18 07:16:30;;;;;;;;;;;;;;;12.91;68.00;100046.72;1731737;81;20718;-76
2021/05/18 07:18:56;;;;;;;;;;;;;;;12.91;68.06;100052.75;1738063;82;20167;-76
2021/05/18 07:21:22;;;;;;;;;;;;;;;12.92;68.13;100061.39;1741958;82;20151;-76
2021/05/18 07:23:51;;;;;;;;;;;;;;;12.92;68.24;100057.49;1736711;81;20742;-76
2021/05/18 07:26:17;;;;;;;;;;;;;;;12.95;68.31;100053.50;1738456;82;20203;-76
2021/05/18 07:28:43;;;;;;;;;;;;;;;13.02;68.31;100060.59;1738536;82;20223;-77
2021/05/18 07:31:09;;;;;;;;;;;;;;;13.07;68.37;100059.53;1737182;81;20271;-76
2021/05/18 07:33:35;;;;;;;;;;;;;;;13.17;68.49;100068.72;1734113;82;20183;-77
2021/05/18 07:36:09;;;;;;;;;;;;;;;13.26;68.46;100062.36;1736681;82;20715;-76
2021/05/18 07:38:36;;;;;;;;;;;;;;;13.35;68.47;100059.88;1738054;82;20175;-77
2021/05/18 07:41:04;;;;;;;;;;;;;;;13.46;68.51;100063.78;1733578;81;20187;-75
2021/05/18 07:43:32;;;;;;;;;;;;;;;13.58;68.56;100061.16;1739816;82;20214;-75
2021/05/18 07:46:01;;;;;;;;;;;;;;;13.70;68.56;100069.80;1731816;82;20255;-76
2021/05/18 07:48:42;;;;;;;;;;;;;;;13.88;68.58;100070.41;1712216;82;20598;-76
2021/05/18 07:59:34;;;;;;;;;;;;;;;14.54;68.61;100074.31;1674226;84;20280;-76
2021/05/18 08:07:28;;;;;;;;;;;;;;;14.90;68.45;100076.67;1668636;85;20288;-77
2021/05/18 08:10:16;;;;;;;;;;;;;;;15.05;68.45;100080.38;1607745;84;5000093;-76
2021/05/18 08:12:25;;;;;;;;;;;;;;;15.22;68.52;100078.32;1677040;84;20200;-76
2021/05/18 08:17:49;;;;;;;;;;;;;;;15.95;68.69;100079.39;1681330;84;20195;-76
2021/05/18 08:56:37;;;;;;;;;;;;;;;17.08;66.98;100113.40;1751254;80;20167;-76
2021/05/18 08:58:38;;;;;;;;;;;;;;;16.98;67.16;100116.09;1747021;80;20171;-75
2021/05/18 10:36:04;;;;;;;;;;;;;;;16.85;66.72;100117.63;1766098;80;20872;-77
2021/05/18 10:38:32;;;;;;;;;;;;;;;16.94;66.81;100119.78;1755663;81;20222;-77
2021/05/18 10:41:10;;;;;;;;;;;;;;;17.05;66.62;100115.32;1763368;80;20159;-76
2021/05/18 10:43:36;;;;;;;;;;;;;;;17.13;66.75;100106.63;1755042;79;20142;-77
2021/05/18 10:46:12;;;;;;;;;;;;;;;17.25;66.57;100112.97;1758962;81;20502;-76
2021/05/18 10:48:42;;;;;;;;;;;;;;;17.40;66.26;100123.94;1760666;80;20546;-77
2021/05/18 10:51:46;;;;;;;;;;;;;;;17.46;66.26;100123.62;1763857;80;20164;-77
2021/05/18 10:54:19;;;;;;;;;;;;;;;17.58;66.38;100131.29;1758723;80;20149;-76
2021/05/18 10:57:01;;;;;;;;;;;;;;;17.76;66.17;100125.94;1765282;80;160960;-77
2021/05/18 10:59:30;;;;;;;;;;;;;;;17.93;65.95;100125.50;1762286;80;20142;-76
2021/05/18 11:02:12;;;;;;;;;;;;;;;18.06;65.80;100131.29;1760986;80;20186;-76
2021/05/18 11:04:42;;;;;;;;;;;;;;;18.19;65.74;100125.77;1754716;81;20179;-76
2021/05/18 11:07:10;;;;;;;;;;;;;;;18.30;65.71;100122.53;1752372;80;20195;-76
2021/05/18 11:09:37;;;;;;;;;;;;;;;18.44;65.66;100126.99;1757593;80;20503;-77
2021/05/18 11:12:06;;;;;;;;;;;;;;;18.66;65.38;100126.66;1759322;80;20558;-76
2021/05/18 11:14:43;;;;;;;;;;;;;;;18.79;65.20;100123.69;1751646;80;20158;-76
2021/05/18 11:17:12;;;;;;;;;;;;;;;18.79;65.04;100127.61;1749843;81;20162;-76
2021/05/18 11:20:09;;;;;;;;;;;;;;;18.74;64.79;100123.11;1754914;80;20187;-76
2021/05/18 11:23:33;;;;;;;;;;;;;;;18.59;64.68;100131.38;1729216;81;20207;-76
2021/05/18 11:25:15;;;;;;;;;;;;;;;18.48;64.93;100132.44;1730365;81;20175;-76
2021/05/18 11:27:42;;;;;;;;;;;;;;;18.47;65.06;100133.37;1740291;81;20167;-77
2021/05/18 11:30:09;;;;;;;;;;;;;;;18.51;65.09;100130.95;1746622;80;20183;-77
2021/05/18 11:32:35;;;;;;;;;;;;;;;18.52;64.79;100131.34;1759035;80;20159;-77
2021/05/18 11:35:03;;;;;;;;;;;;;;;18.56;64.38;100126.77;1755474;81;20816;-77
2021/05/18 11:37:32;;;;;;;;;;;;;;;18.50;64.33;100125.34;1742763;81;20167;-76
2021/05/18 11:40:14;;;;;;;;;;;;;;;18.49;64.11;100126.27;1753930;81;20135;-77
2021/05/18 11:42:41;;;;;;;;;;;;;;;18.38;64.13;100128.19;1745800;80;21112;-77
2021/05/18 11:45:16;;;;;;;;;;;;;;;18.39;64.38;100124.63;1748732;81;20683;-77
2021/05/18 11:47:44;;;;;;;;;;;;;;;18.47;64.51;100126.36;1706300;81;20175;-77
2021/05/18 11:50:20;;;;;;;;;;;;;;;18.57;64.21;100123.22;1753895;81;20473;-78
2021/05/18 11:52:54;;;;;;;;;;;;;;;18.65;63.86;100129.75;1751732;81;20609;-78
2021/05/18 11:55:27;;;;;;;;;;;;;;;18.70;63.70;100126.40;1755639;81;20163;-78
2021/05/18 11:57:54;;;;;;;;;;;;;;;18.73;63.81;100135.83;1744264;81;20193;-77
2021/05/18 12:00:26;;;;;;;;;;;;;;;18.74;63.52;100139.66;1741906;81;20156;-78
2021/05/18 12:02:59;;;;;;;;;;;;;;;18.81;63.46;100133.61;1756309;80;20197;-77
2021/05/18 12:05:26;;;;;;;;;;;;;;;18.88;63.48;100136.26;1755697;80;20545;-78
2021/05/18 12:07:53;;;;;;;;;;;;;;;18.98;63.57;100140.50;1752559;80;20503;-77
2021/05/18 12:10:29;;;;;;;;;;;;;;;18.98;63.33;100140.50;1752551;81;20224;-77
2021/05/18 12:12:55;;;;;;;;;;;;;;;18.87;63.21;100137.66;1748401;81;20195;-77
2021/05/18 12:15:29;;;;;;;;;;;;;;;18.77;63.17;100134.25;1754099;81;20167;-76
2021/05/18 12:17:56;;;;;;;;;;;;;;;18.74;63.34;100134.89;1753275;81;20163;-77
2021/05/18 12:20:23;;;;;;;;;;;;;;;18.65;63.25;100136.76;1753346;80;20502;-77
2021/05/18 12:22:51;;;;;;;;;;;;;;;18.67;63.05;100133.59;1750902;81;20538;-78
2021/05/18 12:25:33;;;;;;;;;;;;;;;18.64;62.97;100129.37;1750126;81;20149;-77
2021/05/18 12:28:08;;;;;;;;;;;;;;;18.66;63.02;100118.80;1753110;81;20550;-77
2021/05/18 12:30:46;;;;;;;;;;;;;;;18.69;62.86;100119.47;1749956;81;20549;-77
2021/05/18 12:33:10;;;;;;;;;;;;;;;18.63;62.94;100113.74;1750439;81;20506;-77
2021/05/18 12:35:37;;;;;;;;;;;;;;;18.71;62.83;100115.45;1754321;81;20151;-77
2021/05/18 12:38:17;;;;;;;;;;;;;;;18.75;62.82;100123.02;1751527;81;20559;-77
2021/05/18 12:40:45;;;;;;;;;;;;;;;18.82;62.69;100114.34;1752524;81;20761;-76
2021/05/18 12:43:22;;;;;;;;;;;;;;;18.98;62.46;100124.78;1760038;80;20169;-76
2021/05/18 12:45:45;;;;;;;;;;;;;;;19.08;62.41;100128.55;1757571;80;21347;-76
2021/05/18 12:48:13;;;;;;;;;;;;;;;19.17;62.34;100131.47;1750917;81;20147;-76
2021/05/18 12:50:49;;;;;;;;;;;;;;;19.27;62.06;100134.83;1753316;81;20155;-77
2021/05/18 12:53:34;;;;;;;;;;;;;;;19.35;62.04;100135.22;1754508;81;20179;-77
2021/05/18 12:56:04;;;;;;;;;;;;;;;19.35;61.62;100136.53;1753023;81;20446;-76
2021/05/18 12:58:32;;;;;;;;;;;;;;;19.37;61.80;100134.66;1742654;81;20214;-76
2021/05/18 13:01:11;;;;;;;;;;;;;;;19.35;61.83;100133.91;1751791;81;20247;-76
2021/05/18 13:03:41;;;;;;;;;;;;;;;19.45;61.83;100140.28;1742839;81;20701;-77
2021/05/18 13:06:07;;;;;;;;;;;;;;;19.53;61.60;100139.86;1754416;81;20486;-77
2021/05/18 13:08:37;;;;;;;;;;;;;;;19.57;61.19;100141.36;1748554;80;20510;-77
2021/05/18 13:13:55;;;;;;;;;;;;;;;19.55;61.15;100151.94;1753875;80;20518;-77
2021/05/18 13:16:23;;;;;;;;;;;;;;;19.63;61.03;100151.02;1750399;81;20507;-77
2021/05/18 13:19:01;;;;;;;;;;;;;;;19.64;61.16;100146.61;1754559;81;20175;-77
2021/05/18 13:21:35;;;;;;;;;;;;;;;19.60;60.81;100151.66;1754878;80;20507;-78
2021/05/18 13:26:35;;;;;;;;;;;;;;;19.53;60.81;100172.17;1749342;81;20522;-77
2021/05/18 13:29:18;;;;;;;;;;;;;;;19.39;60.77;100172.96;1753002;81;20230;-80
2021/05/18 13:31:46;;;;;;;;;;;;;;;19.17;60.68;100170.79;1749356;81;20506;-77
2021/05/18 13:34:13;;;;;;;;;;;;;;;18.92;60.46;100168.36;1753624;81;20163;-79
2021/05/18 13:36:40;;;;;;;;;;;;;;;18.69;60.59;100163.16;1753415;81;20569;-78
2021/05/18 13:39:12;;;;;;;;;;;;;;;18.55;60.67;100161.28;1753613;80;20167;-78
2021/05/18 13:41:38;;;;;;;;;;;;;;;18.35;60.56;100173.31;1751397;81;20155;-77
2021/05/18 13:44:05;;;;;;;;;;;;;;;18.08;60.44;100184.39;1754046;81;20530;-77
2021/05/18 13:46:32;;;;;;;;;;;;;;;17.90;60.44;100180.13;1753568;81;20526;-78
2021/05/18 13:48:58;;;;;;;;;;;;;;;17.77;60.51;100185.63;1751186;81;20228;-77
2021/05/18 13:51:24;;;;;;;;;;;;;;;17.69;60.38;100189.09;1753992;81;20507;-78
2021/05/18 13:53:50;;;;;;;;;;;;;;;17.64;60.36;100190.64;1750739;81;20470;-78
2021/05/18 13:56:20;;;;;;;;;;;;;;;17.62;60.31;100195.11;1751654;81;20168;-77
2021/05/18 13:58:46;;;;;;;;;;;;;;;17.62;60.20;100188.57;1754306;81;20183;-77
2021/05/18 14:01:15;;;;;;;;;;;;;;;17.65;60.18;100181.91;1750374;81;20179;-78
2021/05/18 14:03:41;;;;;;;;;;;;;;;17.70;59.97;100186.87;1749661;81;20491;-77
2021/05/18 14:06:07;;;;;;;;;;;;;;;17.72;59.91;100189.78;1751175;80;20928;-77
2021/05/18 14:08:34;;;;;;;;;;;;;;;17.77;59.82;100184.31;1753491;81;20533;-77
2021/05/18 14:11:17;;;;;;;;;;;;;;;17.84;59.81;100185.69;1751152;81;20490;-77
2021/05/18 14:13:46;;;;;;;;;;;;;;;17.92;59.71;100198.36;1752800;81;20552;-78
2021/05/18 14:16:19;;;;;;;;;;;;;;;17.91;59.37;100194.05;1750061;80;20171;-77
2021/05/18 14:18:47;;;;;;;;;;;;;;;17.87;59.55;100205.14;1751082;81;20517;-78
2021/05/18 14:21:13;;;;;;;;;;;;;;;17.79;59.54;100204.70;1750210;81;20794;-77
2021/05/18 14:26:09;;;;;;;;;;;;;;;17.85;59.63;100207.84;1752215;81;20599;-77
2021/05/18 14:28:36;;;;;;;;;;;;;;;17.85;59.40;100209.14;1748451;81;20187;-77
2021/05/18 14:31:07;;;;;;;;;;;;;;;17.82;59.39;100205.84;1749365;81;20167;-77
2021/05/18 14:33:34;;;;;;;;;;;;;;;17.76;59.50;100204.39;1749188;80;20159;-77
2021/05/18 14:36:00;;;;;;;;;;;;;;;17.73;59.38;100206.32;1738371;81;20610;-77
2021/05/18 14:38:27;;;;;;;;;;;;;;;17.71;59.33;100212.09;1751103;80;20230;-77
2021/05/18 14:46:33;;;;;;;;;;;;;;;17.59;59.11;100214.03;1675792;84;20534;-77
2021/05/18 14:57:13;;;;;;;;;;;;;;;17.61;59.03;100214.80;1747676;81;20506;-77
2021/05/18 14:59:40;;;;;;;;;;;;;;;17.59;58.91;100212.27;1753381;81;20344;-76
2021/05/18 15:02:06;;;;;;;;;;;;;;;17.53;58.99;100215.19;1749156;80;20195;-76
2021/05/18 15:04:33;;;;;;;;;;;;;;;17.50;58.70;100216.66;1749121;81;20179;-76
2021/05/18 15:07:00;;;;;;;;;;;;;;;17.42;58.87;100210.96;1752874;81;20139;-76
2021/05/18 15:09:26;;;;;;;;;;;;;;;17.32;58.72;100215.80;1734119;81;20145;-76
2021/05/18 15:11:51;;;;;;;;;;;;;;;17.30;58.59;100216.80;1749737;80;20183;-76
2021/05/18 15:14:17;;;;;;;;;;;;;;;17.26;58.76;100224.41;1747165;81;20822;-76
2021/05/18 15:16:43;;;;;;;;;;;;;;;17.27;58.72;100219.57;1754701;80;20159;-76
2021/05/18 15:19:13;;;;;;;;;;;;;;;17.22;58.57;100232.86;1748425;81;20502;-76
2021/05/18 15:21:43;;;;;;;;;;;;;;;17.22;58.67;100231.55;1745709;81;20166;-76
2021/05/18 15:24:10;;;;;;;;;;;;;;;17.19;58.58;100227.78;1752505;81;20163;-76
2021/05/18 15:26:36;;;;;;;;;;;;;;;17.13;58.71;100234.66;1758999;80;20169;-76
2021/05/18 15:29:07;;;;;;;;;;;;;;;17.03;58.56;100232.95;1746742;80;20179;-76
2021/05/18 15:31:34;;;;;;;;;;;;;;;17.00;58.65;100236.17;1751617;80;20170;-76
2021/05/18 15:34:00;;;;;;;;;;;;;;;17.06;58.72;100237.17;1755522;80;20143;-76
2021/05/18 15:36:29;;;;;;;;;;;;;;;17.02;58.42;100239.09;1748549;81;20179;-76
2021/05/18 15:38:55;;;;;;;;;;;;;;;16.96;58.45;100243.30;1755373;81;20253;-76
2021/05/18 15:41:21;;;;;;;;;;;;;;;16.95;58.31;100248.60;1747295;81;20265;-76
2021/05/18 15:43:50;;;;;;;;;;;;;;;16.81;58.20;100248.80;1745593;81;20570;-76
2021/05/18 15:46:16;;;;;;;;;;;;;;;16.68;58.21;100250.75;1752485;80;20247;-76
2021/05/18 15:48:43;;;;;;;;;;;;;;;16.61;58.33;100249.34;1745077;81;20257;-76
2021/05/18 15:51:12;;;;;;;;;;;;;;;16.56;58.40;100254.78;1741545;81;20249;-76
2021/05/18 15:53:39;;;;;;;;;;;;;;;16.53;58.40;100245.33;1752293;81;20206;-76
2021/05/18 15:56:05;;;;;;;;;;;;;;;16.50;58.39;100251.14;1752659;81;20247;-76
2021/05/18 15:58:32;;;;;;;;;;;;;;;16.49;58.51;100255.52;1744873;79;20306;-76
2021/05/18 16:00:58;;;;;;;;;;;;;;;16.49;58.54;100252.06;1751361;81;20271;-76
2021/05/18 16:03:24;;;;;;;;;;;;;;;16.47;58.57;100256.50;1749573;80;20291;-76
2021/05/18 16:05:50;;;;;;;;;;;;;;;16.42;58.47;100261.94;1749069;80;20967;-76
2021/05/18 16:11:08;;;;;;;;;;;;;;;16.36;58.68;100262.21;1754713;80;20167;-76
2021/05/18 16:13:34;;;;;;;;;;;;;;;16.35;58.70;100259.21;1754253;81;20206;-77
2021/05/18 16:16:05;;;;;;;;;;;;;;;16.33;58.66;100261.05;1633213;80;10007625;-77
2021/05/18 16:18:39;;;;;;;;;;;;;;;16.31;58.81;100264.18;1755381;81;20185;-77
2021/05/18 16:21:08;;;;;;;;;;;;;;;16.33;58.82;100262.34;1756762;80;20164;-77
2021/05/18 16:23:37;;;;;;;;;;;;;;;16.35;58.90;100265.73;1739378;81;20276;-76
2021/05/18 16:26:04;;;;;;;;;;;;;;;16.33;58.83;100259.73;1753900;81;20171;-77
2021/05/18 16:28:31;;;;;;;;;;;;;;;16.26;58.76;100260.08;1755047;80;20205;-77
2021/05/18 16:30:58;;;;;;;;;;;;;;;16.19;58.92;100261.66;1756168;81;20202;-77
2021/05/18 16:33:30;;;;;;;;;;;;;;;16.21;59.01;100260.29;1750525;81;20136;-75
2021/05/18 16:35:56;;;;;;;;;;;;;;;16.22;58.97;100255.45;1756944;81;20163;-75
2021/05/18 16:38:22;;;;;;;;;;;;;;;16.19;58.93;100251.23;1751108;81;20215;-75
2021/05/18 16:40:52;;;;;;;;;;;;;;;16.14;59.05;100258.41;1753043;81;20220;-76
2021/05/18 16:43:16;;;;;;;;;;;;;;;16.14;59.10;100257.56;1755547;80;20211;-76
2021/05/18 16:45:50;;;;;;;;;;;;;;;16.16;59.15;100260.95;1752295;81;20207;-76
2021/05/18 16:48:16;;;;;;;;;;;;;;;16.14;59.25;100260.17;1742701;81;20139;-76
2021/05/18 16:50:43;;;;;;;;;;;;;;;16.14;59.27;100261.47;1750409;81;20199;-76
2021/05/18 16:53:18;;;;;;;;;;;;;;;16.15;59.29;100267.08;1748844;81;20147;-76
2021/05/18 16:55:45;;;;;;;;;;;;;;;16.14;59.36;100263.63;1753123;80;20234;-77
2021/05/18 16:58:11;;;;;;;;;;;;;;;16.11;59.20;100262.95;1754788;81;20179;-77
2021/05/18 17:00:40;;;;;;;;;;;;;;;16.06;59.22;100263.61;1755358;81;20190;-77
2021/05/18 17:03:06;;;;;;;;;;;;;;;15.97;59.21;100263.55;1752739;80;20155;-76
2021/05/18 17:05:32;;;;;;;;;;;;;;;15.94;59.26;100260.23;1750658;80;20171;-76
2021/05/18 17:08:06;;;;;;;;;;;;;;;15.92;59.28;100255.08;1754191;80;20167;-76
2021/05/18 17:10:34;;;;;;;;;;;;;;;15.89;59.30;100257.36;1746230;81;20246;-77
2021/05/18 17:13:01;;;;;;;;;;;;;;;15.84;59.41;100255.41;1751532;81;20143;-75
2021/05/18 17:15:28;;;;;;;;;;;;;;;15.84;59.49;100259.33;1752538;80;20254;-75
2021/05/18 17:17:55;;;;;;;;;;;;;;;15.82;59.53;100259.84;1755200;80;20179;-75
2021/05/18 17:20:24;;;;;;;;;;;;;;;15.83;59.62;100264.14;1749491;81;20184;-76
2021/05/18 17:22:50;;;;;;;;;;;;;;;15.83;59.61;100258.94;1753593;81;20465;-75
2021/05/18 17:25:16;;;;;;;;;;;;;;;15.83;59.68;100253.72;1749249;80;20161;-74
2021/05/18 17:27:44;;;;;;;;;;;;;;;15.82;59.62;100258.55;1755368;81;20155;-74
2021/05/18 17:30:13;;;;;;;;;;;;;;;15.78;59.68;100259.59;1753518;80;20143;-75
2021/05/18 17:32:39;;;;;;;;;;;;;;;15.78;59.58;100260.89;1751064;80;20144;-75
2021/05/18 17:35:06;;;;;;;;;;;;;;;15.77;59.75;100263.56;1754969;81;20187;-75
2021/05/18 17:37:33;;;;;;;;;;;;;;;15.78;59.90;100263.50;1770731;80;20166;-75
2021/05/18 17:40:00;;;;;;;;;;;;;;;15.77;59.74;100267.47;1753654;81;20151;-78
2021/05/18 17:42:26;;;;;;;;;;;;;;;15.71;59.67;100263.37;1745727;81;20167;-76
2021/05/18 17:44:57;;;;;;;;;;;;;;;15.68;59.82;100269.16;1749012;81;20187;-76
2021/05/18 17:47:20;;;;;;;;;;;;;;;15.67;59.67;100271.38;1753871;81;20470;-76
2021/05/18 17:49:46;;;;;;;;;;;;;;;15.60;59.67;100266.88;1736142;81;20230;-76
2021/05/18 17:52:12;;;;;;;;;;;;;;;15.57;59.72;100272.26;1748296;80;20198;-75
2021/05/18 17:54:39;;;;;;;;;;;;;;;15.55;59.79;100272.28;1750844;81;20183;-75
2021/05/18 17:57:08;;;;;;;;;;;;;;;15.53;59.84;100278.02;1753099;81;20139;-76
2021/05/18 17:59:34;;;;;;;;;;;;;;;15.51;59.84;100279.00;1749337;80;20161;-76
2021/05/18 18:02:00;;;;;;;;;;;;;;;15.49;59.87;100283.42;1755224;81;20538;-76